Time;durP1;ratioP1;P1;durP2;ratioP2;P2;SDS_P1;SDS_P2;PMS_P1;PMS_P2;Temp;Humidity;BMP_temperature;BMP_pressure;BME280_temperature;BME280_humidity;BME280_pressure;Samples;Min_cycle;Max_cycle;Signal;HPM_P1;HPM_P2
2023/04/21 00:00:39;;;;;;;6.40;3.45;;;;;;;;;;4938342;29;20074;-59
2023/04/21 00:03:08;;;;;;;9.35;3.00;;;;;;;;;;4936727;29;20066;-60
2023/04/21 00:05:41;;;;;;;7.30;3.13;;;;;;;;;;4939564;28;20695;-58
2023/04/21 00:08:10;;;;;;;9.90;3.53;;;;;;;;;;4936051;29;20067;-58
2023/04/21 00:10:39;;;;;;;7.65;2.67;;;;;;;;;;4931978;29;20051;-59
2023/04/21 00:13:07;;;;;;;4.80;2.35;;;;;;;;;;4937282;29;20497;-59
2023/04/21 00:15:36;;;;;;;7.20;2.67;;;;;;;;;;4934487;28;20052;-60
2023/04/21 00:18:05;;;;;;;4.97;2.50;;;;;;;;;;4938004;29;20575;-59
2023/04/21 00:20:33;;;;;;;11.27;3.58;;;;;;;;;;4936187;29;20055;-59
2023/04/21 00:23:02;;;;;;;7.30;2.83;;;;;;;;;;4939979;29;20704;-59
2023/04/21 00:25:32;;;;;;;7.82;2.92;;;;;;;;;;4936731;29;20110;-59
2023/04/21 00:28:00;;;;;;;4.93;2.50;;;;;;;;;;4933551;29;20052;-59
2023/04/21 00:30:28;;;;;;;9.32;2.65;;;;;;;;;;4930468;29;20444;-59
2023/04/21 00:32:57;;;;;;;7.20;2.85;;;;;;;;;;4933937;29;20062;-59
2023/04/21 00:35:25;;;;;;;5.40;2.33;;;;;;;;;;4932625;28;20067;-61
2023/04/21 00:37:54;;;;;;;6.47;2.05;;;;;;;;;;4933849;29;20047;-58
2023/04/21 00:40:22;;;;;;;5.38;2.47;;;;;;;;;;4935821;29;20052;-59
2023/04/21 00:42:52;;;;;;;5.50;2.58;;;;;;;;;;4934377;29;20062;-58
2023/04/21 00:45:20;;;;;;;5.97;2.92;;;;;;;;;;4934382;28;20048;-59
2023/04/21 00:47:49;;;;;;;6.50;2.45;;;;;;;;;;4940805;29;20138;-59
2023/04/21 00:50:17;;;;;;;7.10;2.90;;;;;;;;;;4935389;29;20484;-58
2023/04/21 00:52:47;;;;;;;6.70;2.97;;;;;;;;;;4936076;29;20047;-59
2023/04/21 00:55:16;;;;;;;6.30;2.17;;;;;;;;;;4938504;29;20142;-59
2023/04/21 00:57:45;;;;;;;3.25;1.90;;;;;;;;;;4932889;29;20637;-59
2023/04/21 01:00:16;;;;;;;10.13;3.80;;;;;;;;;;4930621;29;20040;-59
2023/04/21 01:02:47;;;;;;;5.82;2.35;;;;;;;;;;4932869;29;20053;-61
2023/04/21 01:05:17;;;;;;;3.20;1.90;;;;;;;;;;4930422;23;20457;-63
2023/04/21 01:07:45;;;;;;;4.35;1.58;;;;;;;;;;4917784;29;20052;-63
2023/04/21 01:10:14;;;;;;;8.45;1.80;;;;;;;;;;4917345;29;20385;-62
2023/04/21 01:12:45;;;;;;;3.60;2.03;;;;;;;;;;4917878;29;20048;-62
2023/04/21 01:15:16;;;;;;;6.78;2.15;;;;;;;;;;4917209;29;20494;-62
2023/04/21 01:17:44;;;;;;;4.68;2.30;;;;;;;;;;4917896;29;20063;-63
2023/04/21 01:20:14;;;;;;;6.07;2.92;;;;;;;;;;4917479;29;20103;-62
2023/04/21 01:22:44;;;;;;;5.80;2.72;;;;;;;;;;4917256;29;20149;-63
2023/04/21 01:25:12;;;;;;;6.85;2.85;;;;;;;;;;4917279;29;20091;-63
2023/04/21 01:27:41;;;;;;;10.02;3.10;;;;;;;;;;4917861;29;20074;-63
2023/04/21 01:30:10;;;;;;;5.97;2.70;;;;;;;;;;4917085;29;20139;-62
2023/04/21 01:32:38;;;;;;;5.32;2.15;;;;;;;;;;4917050;29;20585;-62
2023/04/21 01:35:07;;;;;;;5.55;2.83;;;;;;;;;;4917566;29;20052;-62
2023/04/21 01:37:35;;;;;;;5.97;2.30;;;;;;;;;;4904431;29;20055;-62
2023/04/21 01:40:08;;;;;;;4.22;1.92;;;;;;;;;;4904107;29;20077;-63
2023/04/21 01:42:37;;;;;;;6.60;3.20;;;;;;;;;;4903408;29;20567;-63
2023/04/21 01:45:06;;;;;;;8.57;3.70;;;;;;;;;;4903104;29;20048;-62
2023/04/21 01:47:34;;;;;;;6.43;3.03;;;;;;;;;;4903697;29;20142;-61
2023/04/21 01:50:03;;;;;;;7.95;2.42;;;;;;;;;;4904358;29;20079;-63
2023/04/21 01:52:31;;;;;;;6.93;2.38;;;;;;;;;;4904826;29;20048;-62
2023/04/21 01:55:00;;;;;;;7.80;2.42;;;;;;;;;;4904934;29;20143;-62
2023/04/21 01:57:30;;;;;;;7.90;2.33;;;;;;;;;;4904505;29;20461;-62
2023/04/21 01:59:58;;;;;;;6.43;2.72;;;;;;;;;;4904809;29;20056;-63
2023/04/21 02:02:27;;;;;;;9.75;3.20;;;;;;;;;;4903794;29;20763;-63
2023/04/21 02:04:55;;;;;;;6.35;2.92;;;;;;;;;;4903520;29;20071;-63
2023/04/21 02:07:24;;;;;;;7.22;3.20;;;;;;;;;;4902873;29;20048;-63
2023/04/21 02:09:52;;;;;;;4.90;2.35;;;;;;;;;;4905608;29;20508;-63
2023/04/21 02:12:20;;;;;;;7.10;2.65;;;;;;;;;;4902559;29;20505;-62
2023/04/21 02:14:50;;;;;;;5.50;2.33;;;;;;;;;;4904126;29;20044;-62
2023/04/21 02:17:18;;;;;;;3.97;2.00;;;;;;;;;;4905033;29;20056;-63
2023/04/21 02:19:46;;;;;;;4.45;2.45;;;;;;;;;;4902483;29;20118;-62
2023/04/21 02:22:15;;;;;;;6.63;2.28;;;;;;;;;;4903629;29;20063;-64
2023/04/21 02:24:43;;;;;;;4.88;2.47;;;;;;;;;;4902047;29;20530;-63
2023/04/21 02:27:11;;;;;;;4.78;2.47;;;;;;;;;;4901867;29;20068;-63
2023/04/21 02:29:40;;;;;;;6.80;2.53;;;;;;;;;;4904595;29;20054;-64
2023/04/21 02:32:09;;;;;;;3.80;2.13;;;;;;;;;;4904322;29;20048;-63
2023/04/21 02:34:52;;;;;;;4.63;2.30;;;;;;;;;;4904085;29;20044;-63
2023/04/21 02:37:20;;;;;;;10.25;2.17;;;;;;;;;;4903183;29;20048;-63
2023/04/21 02:39:49;;;;;;;5.15;2.63;;;;;;;;;;4902647;29;20134;-62
2023/04/21 02:42:17;;;;;;;8.25;2.85;;;;;;;;;;4903089;29;20063;-63
2023/04/21 02:44:45;;;;;;;4.60;1.98;;;;;;;;;;4902812;29;20044;-62
2023/04/21 02:47:16;;;;;;;12.70;3.17;;;;;;;;;;4905397;29;20502;-62
2023/04/21 02:49:45;;;;;;;7.65;2.33;;;;;;;;;;4904312;29;20143;-61
2023/04/21 02:52:13;;;;;;;12.65;2.45;;;;;;;;;;4904463;29;20140;-62
2023/04/21 02:54:42;;;;;;;5.38;2.13;;;;;;;;;;4900287;29;20056;-62
2023/04/21 02:57:10;;;;;;;6.95;3.45;;;;;;;;;;4904706;29;20513;-62
2023/04/21 02:59:39;;;;;;;5.90;2.80;;;;;;;;;;4902172;29;20397;-62
2023/04/21 03:02:07;;;;;;;5.30;1.70;;;;;;;;;;4904770;29;20048;-62
2023/04/21 03:04:37;;;;;;;6.00;2.30;;;;;;;;;;4903674;29;20115;-63
2023/04/21 03:07:05;;;;;;;9.05;3.35;;;;;;;;;;4907464;29;20493;-62
2023/04/21 03:09:34;;;;;;;5.45;1.92;;;;;;;;;;4905162;29;20044;-61
2023/04/21 03:12:02;;;;;;;5.95;2.10;;;;;;;;;;4907072;29;20056;-61
2023/04/21 03:14:31;;;;;;;5.10;2.70;;;;;;;;;;4908677;29;20171;-62
2023/04/21 03:16:59;;;;;;;2.38;1.73;;;;;;;;;;4906445;29;20844;-63
2023/04/21 03:19:28;;;;;;;3.65;2.25;;;;;;;;;;4903300;29;20494;-61
2023/04/21 03:21:58;;;;;;;7.45;2.53;;;;;;;;;;4904879;29;20486;-63
2023/04/21 03:24:26;;;;;;;9.40;2.95;;;;;;;;;;4905402;29;20412;-62
2023/04/21 03:26:55;;;;;;;11.00;3.17;;;;;;;;;;4907966;29;20059;-62
2023/04/21 03:29:24;;;;;;;7.90;3.78;;;;;;;;;;4905178;29;20048;-62
2023/04/21 03:31:52;;;;;;;6.30;1.92;;;;;;;;;;4906887;29;20048;-61
2023/04/21 03:34:21;;;;;;;9.80;3.63;;;;;;;;;;4904101;29;20051;-62
2023/04/21 03:36:49;;;;;;;5.50;2.53;;;;;;;;;;4908023;29;20048;-62
2023/04/21 03:39:19;;;;;;;7.15;2.50;;;;;;;;;;4909067;29;20052;-61
2023/04/21 03:41:48;;;;;;;3.47;1.92;;;;;;;;;;4909830;29;20140;-62
2023/04/21 03:44:16;;;;;;;2.58;2.28;;;;;;;;;;4907668;29;20059;-62
2023/04/21 03:46:44;;;;;;;5.43;2.47;;;;;;;;;;4907156;29;20048;-62
2023/04/21 03:49:12;;;;;;;5.03;2.95;;;;;;;;;;4907279;29;20155;-61
2023/04/21 03:51:41;;;;;;;4.95;2.17;;;;;;;;;;4905482;29;20520;-63
2023/04/21 03:54:09;;;;;;;3.55;1.55;;;;;;;;;;4905739;29;20135;-61
2023/04/21 03:56:39;;;;;;;7.13;2.17;;;;;;;;;;4903915;29;20063;-63
2023/04/21 03:59:07;;;;;;;6.47;2.67;;;;;;;;;;4906330;29;20618;-63
2023/04/21 04:01:36;;;;;;;3.00;1.65;;;;;;;;;;4908823;29;20449;-63
2023/04/21 04:04:05;;;;;;;6.95;3.33;;;;;;;;;;4908197;29;20060;-63
2023/04/21 04:06:34;;;;;;;3.90;1.65;;;;;;;;;;4905579;29;20072;-62
2023/04/21 04:09:03;;;;;;;5.88;2.28;;;;;;;;;;4904694;29;20071;-63
2023/04/21 04:11:31;;;;;;;9.88;4.00;;;;;;;;;;4902858;29;20410;-60
2023/04/21 04:14:01;;;;;;;6.75;2.40;;;;;;;;;;4909029;29;20083;-63
2023/04/21 04:16:30;;;;;;;7.38;2.70;;;;;;;;;;4905093;29;20124;-63
2023/04/21 04:18:58;;;;;;;2.72;1.55;;;;;;;;;;4906791;29;20055;-62
2023/04/21 04:21:27;;;;;;;4.63;2.15;;;;;;;;;;4902502;29;20151;-62
2023/04/21 04:23:55;;;;;;;6.55;1.92;;;;;;;;;;4905331;29;20056;-62
2023/04/21 04:26:25;;;;;;;4.35;2.75;;;;;;;;;;4900431;29;20054;-63
2023/04/21 04:28:55;;;;;;;8.85;4.38;;;;;;;;;;4901939;29;20246;-62
2023/04/21 04:31:25;;;;;;;3.72;1.83;;;;;;;;;;4904866;29;20449;-63
2023/04/21 04:33:53;;;;;;;7.47;2.28;;;;;;;;;;4904139;29;20327;-61
2023/04/21 04:36:23;;;;;;;8.18;3.22;;;;;;;;;;4905523;29;20048;-62
2023/04/21 04:38:51;;;;;;;7.00;3.50;;;;;;;;;;4902013;29;20071;-62
2023/04/21 04:41:19;;;;;;;7.80;2.63;;;;;;;;;;4907368;29;20055;-62
2023/04/21 04:43:48;;;;;;;2.90;1.77;;;;;;;;;;4904464;29;20051;-63
2023/04/21 04:46:19;;;;;;;5.15;2.47;;;;;;;;;;4902611;29;20142;-62
2023/04/21 04:48:49;;;;;;;9.10;3.58;;;;;;;;;;4904031;29;20083;-62
2023/04/21 04:51:17;;;;;;;21.90;3.25;;;;;;;;;;4903113;29;20056;-63
2023/04/21 04:53:46;;;;;;;9.02;3.40;;;;;;;;;;4905604;29;20055;-62
2023/04/21 04:56:14;;;;;;;6.00;2.45;;;;;;;;;;4901980;29;20052;-63
2023/04/21 04:58:45;;;;;;;6.90;2.72;;;;;;;;;;4905164;29;20052;-62
2023/04/21 05:01:13;;;;;;;6.53;3.47;;;;;;;;;;4904082;29;20067;-61
2023/04/21 05:03:42;;;;;;;6.75;2.63;;;;;;;;;;4904117;29;20146;-62
2023/04/21 05:06:12;;;;;;;25.25;2.80;;;;;;;;;;4904903;29;20671;-63
2023/04/21 05:08:41;;;;;;;10.32;2.40;;;;;;;;;;4902942;29;20059;-60
2023/04/21 05:11:09;;;;;;;11.07;3.33;;;;;;;;;;4903848;29;20056;-62
2023/04/21 05:13:39;;;;;;;6.20;3.20;;;;;;;;;;4904985;29;20191;-60
2023/04/21 05:16:10;;;;;;;6.82;3.22;;;;;;;;;;4907341;29;20167;-62
2023/04/21 05:18:38;;;;;;;16.98;3.53;;;;;;;;;;4902705;29;20096;-62
2023/04/21 05:21:07;;;;;;;5.72;2.50;;;;;;;;;;4906442;29;20090;-62
2023/04/21 05:23:36;;;;;;;6.00;2.53;;;;;;;;;;4904120;29;20427;-62
2023/04/21 05:26:05;;;;;;;6.50;2.40;;;;;;;;;;4903761;29;20580;-62
2023/04/21 05:28:34;;;;;;;8.50;4.30;;;;;;;;;;4901973;29;20520;-63
2023/04/21 05:31:03;;;;;;;5.43;2.10;;;;;;;;;;4904998;29;20048;-62
2023/04/21 05:33:31;;;;;;;6.30;2.67;;;;;;;;;;4903355;29;20048;-61
2023/04/21 05:35:59;;;;;;;5.40;2.78;;;;;;;;;;4904899;29;20048;-61
2023/04/21 05:38:28;;;;;;;8.18;2.75;;;;;;;;;;4904187;29;20162;-59
2023/04/21 05:40:58;;;;;;;9.95;2.42;;;;;;;;;;4906398;29;20104;-59
2023/04/21 05:43:26;;;;;;;6.55;2.13;;;;;;;;;;4904483;29;20498;-60
2023/04/21 05:45:55;;;;;;;5.53;2.15;;;;;;;;;;4905150;29;20059;-61
2023/04/21 05:48:23;;;;;;;12.30;3.88;;;;;;;;;;4906639;29;20083;-59
2023/04/21 05:50:51;;;;;;;7.38;2.75;;;;;;;;;;4907875;29;20048;-61
2023/04/21 05:53:20;;;;;;;9.43;3.38;;;;;;;;;;4907988;29;20167;-59
2023/04/21 05:55:48;;;;;;;4.72;2.15;;;;;;;;;;4904367;29;20076;-61
2023/04/21 05:58:18;;;;;;;6.30;3.10;;;;;;;;;;4905522;29;20048;-61
2023/04/21 06:00:46;;;;;;;4.05;2.28;;;;;;;;;;4907536;29;20080;-60
2023/04/21 06:03:16;;;;;;;6.03;2.58;;;;;;;;;;4905508;29;20052;-60
2023/04/21 06:05:46;;;;;;;4.25;2.28;;;;;;;;;;4905846;29;20112;-61
2023/04/21 06:08:14;;;;;;;7.60;2.83;;;;;;;;;;4903934;29;20055;-60
2023/04/21 06:10:42;;;;;;;6.80;3.40;;;;;;;;;;4901574;29;20592;-61
2023/04/21 06:13:11;;;;;;;6.90;2.50;;;;;;;;;;4905475;29;20600;-61
2023/04/21 06:15:40;;;;;;;6.20;2.38;;;;;;;;;;4904433;29;20152;-60
2023/04/21 06:18:09;;;;;;;6.13;3.13;;;;;;;;;;4906602;29;20422;-60
2023/04/21 06:20:39;;;;;;;11.13;3.10;;;;;;;;;;4907256;29;20072;-60
2023/04/21 06:23:08;;;;;;;9.90;3.05;;;;;;;;;;4903958;29;20127;-60
2023/04/21 06:25:37;;;;;;;5.18;3.25;;;;;;;;;;4900806;29;20110;-61
2023/04/21 06:28:05;;;;;;;7.93;3.90;;;;;;;;;;4904377;29;20057;-60
2023/04/21 06:30:34;;;;;;;6.07;3.03;;;;;;;;;;4905182;29;20068;-60
2023/04/21 06:33:05;;;;;;;6.63;2.97;;;;;;;;;;4903298;29;20060;-60
2023/04/21 06:35:34;;;;;;;7.35;2.28;;;;;;;;;;4905858;29;20420;-60
2023/04/21 06:38:02;;;;;;;5.28;2.35;;;;;;;;;;4903450;29;20059;-60
2023/04/21 06:40:30;;;;;;;9.45;3.35;;;;;;;;;;4905447;29;20498;-60
2023/04/21 06:42:59;;;;;;;7.50;2.65;;;;;;;;;;4905292;29;20433;-60
2023/04/21 06:45:27;;;;;;;8.05;2.90;;;;;;;;;;4905263;29;20075;-60
2023/04/21 06:47:56;;;;;;;6.32;2.53;;;;;;;;;;4903665;29;20699;-60
2023/04/21 06:50:25;;;;;;;9.30;2.97;;;;;;;;;;4906028;29;20238;-60
2023/04/21 06:52:54;;;;;;;6.57;2.85;;;;;;;;;;4905653;29;20435;-60
2023/04/21 06:55:22;;;;;;;8.50;2.35;;;;;;;;;;4900940;29;20103;-60
2023/04/21 06:57:51;;;;;;;4.70;2.22;;;;;;;;;;4900442;29;20135;-61
2023/04/21 07:00:19;;;;;;;6.32;2.78;;;;;;;;;;4904767;29;20560;-61
2023/04/21 07:02:48;;;;;;;6.15;2.10;;;;;;;;;;4905733;29;20079;-61
2023/04/21 07:05:16;;;;;;;6.70;2.72;;;;;;;;;;4900895;29;20183;-61
2023/04/21 07:07:46;;;;;;;5.10;2.15;;;;;;;;;;4903650;29;20584;-61
2023/04/21 07:10:18;;;;;;;6.47;2.97;;;;;;;;;;4902030;29;20083;-62
2023/04/21 07:12:46;;;;;;;7.38;2.75;;;;;;;;;;4902935;29;20056;-61
2023/04/21 07:15:16;;;;;;;7.10;2.58;;;;;;;;;;4906081;29;20558;-61
2023/04/21 07:17:44;;;;;;;8.65;2.95;;;;;;;;;;4904872;29;20056;-61
2023/04/21 07:20:13;;;;;;;7.20;2.58;;;;;;;;;;4903164;29;20045;-61
2023/04/21 07:22:41;;;;;;;5.78;2.15;;;;;;;;;;4902023;29;20498;-61
2023/04/21 07:25:11;;;;;;;7.32;2.85;;;;;;;;;;4904883;29;20052;-62
2023/04/21 07:27:40;;;;;;;6.35;2.30;;;;;;;;;;4902020;29;20167;-61
2023/04/21 07:30:08;;;;;;;4.70;2.97;;;;;;;;;;4904643;29;20056;-61
2023/04/21 07:32:37;;;;;;;9.57;2.80;;;;;;;;;;4905324;29;20052;-61
2023/04/21 07:35:06;;;;;;;8.40;2.47;;;;;;;;;;4902166;29;20090;-62
2023/04/21 07:37:35;;;;;;;7.47;3.55;;;;;;;;;;4903377;29;20052;-61
2023/04/21 07:40:03;;;;;;;5.18;2.63;;;;;;;;;;4904698;29;20151;-61
2023/04/21 07:42:33;;;;;;;5.70;2.45;;;;;;;;;;4899738;29;20056;-61
2023/04/21 07:45:01;;;;;;;7.93;3.55;;;;;;;;;;4901815;29;20069;-61
2023/04/21 07:47:30;;;;;;;6.20;2.03;;;;;;;;;;4899992;29;20162;-61
2023/04/21 07:49:58;;;;;;;13.95;3.08;;;;;;;;;;4900354;29;20487;-61
2023/04/21 07:52:27;;;;;;;7.25;3.25;;;;;;;;;;4904396;29;20067;-61
2023/04/21 07:54:55;;;;;;;6.22;2.00;;;;;;;;;;4906985;29;20074;-62
2023/04/21 07:57:24;;;;;;;7.30;2.95;;;;;;;;;;4905809;29;20048;-61
2023/04/21 07:59:53;;;;;;;5.95;2.30;;;;;;;;;;4906161;29;20075;-61
2023/04/21 08:02:22;;;;;;;7.88;2.45;;;;;;;;;;4906977;29;20064;-61
2023/04/21 08:04:51;;;;;;;5.95;2.25;;;;;;;;;;4905593;29;20920;-62
2023/04/21 08:07:19;;;;;;;7.90;2.55;;;;;;;;;;4906361;29;20051;-62
2023/04/21 08:09:48;;;;;;;5.15;1.90;;;;;;;;;;4904249;29;20050;-61
2023/04/21 08:12:16;;;;;;;4.57;2.47;;;;;;;;;;4856197;29;20506;-61
2023/04/21 08:14:44;;;;;;;10.50;3.17;;;;;;;;;;4907413;29;20059;-62
2023/04/21 08:17:14;;;;;;;6.55;2.42;;;;;;;;;;4906908;29;20466;-62
2023/04/21 08:19:43;;;;;;;5.95;3.05;;;;;;;;;;4906153;29;20521;-62
2023/04/21 08:22:11;;;;;;;6.75;2.67;;;;;;;;;;4904080;29;20138;-61
2023/04/21 08:24:39;;;;;;;8.75;3.33;;;;;;;;;;4908049;29;20408;-62
2023/04/21 08:27:08;;;;;;;8.63;3.50;;;;;;;;;;4905435;29;20129;-61
2023/04/21 08:29:36;;;;;;;4.15;2.35;;;;;;;;;;4904884;29;20066;-61
2023/04/21 08:32:05;;;;;;;5.97;2.38;;;;;;;;;;4906510;29;20044;-62
2023/04/21 08:34:35;;;;;;;8.00;3.40;;;;;;;;;;4906258;29;20091;-62
2023/04/21 08:37:03;;;;;;;10.73;3.03;;;;;;;;;;4905533;29;20171;-62
2023/04/21 08:39:32;;;;;;;6.80;2.90;;;;;;;;;;4906119;29;20481;-62
2023/04/21 08:42:01;;;;;;;7.75;3.00;;;;;;;;;;4903562;29;20051;-62
2023/04/21 08:44:30;;;;;;;8.40;2.72;;;;;;;;;;4904795;29;20084;-62
2023/04/21 08:46:59;;;;;;;4.38;2.35;;;;;;;;;;4905266;29;20515;-62
2023/04/21 08:49:30;;;;;;;8.77;2.38;;;;;;;;;;4906351;29;20044;-61
2023/04/21 08:52:00;;;;;;;7.47;2.92;;;;;;;;;;4906215;29;20183;-61
2023/04/21 08:54:29;;;;;;;4.72;3.08;;;;;;;;;;4904602;29;20463;-61
2023/04/21 08:56:58;;;;;;;5.00;2.25;;;;;;;;;;4902852;29;20044;-61
2023/04/21 08:59:42;;;;;;;4.70;2.33;;;;;;;;;;4907440;29;20407;-62
2023/04/21 09:02:11;;;;;;;8.45;2.92;;;;;;;;;;4906178;29;20044;-62
2023/04/21 09:04:40;;;;;;;7.03;2.83;;;;;;;;;;4902199;29;20056;-62
2023/04/21 09:07:10;;;;;;;8.38;3.42;;;;;;;;;;4901353;29;20056;-63
2023/04/21 09:09:52;;;;;;;5.07;1.77;;;;;;;;;;4902392;29;20056;-62
2023/04/21 09:12:20;;;;;;;11.82;3.10;;;;;;;;;;4905983;29;20409;-62
2023/04/21 09:14:49;;;;;;;8.80;3.60;;;;;;;;;;4903676;29;20115;-61
2023/04/21 09:17:18;;;;;;;5.75;2.95;;;;;;;;;;4903534;29;20484;-62
2023/04/21 09:19:47;;;;;;;4.53;2.67;;;;;;;;;;4907402;29;20406;-62
2023/04/21 09:22:17;;;;;;;4.50;2.42;;;;;;;;;;4904431;29;20498;-62
2023/04/21 09:24:46;;;;;;;6.72;3.13;;;;;;;;;;4906924;29;20524;-61
2023/04/21 09:27:16;;;;;;;9.65;3.20;;;;;;;;;;4904731;29;20087;-61
2023/04/21 09:29:48;;;;;;;8.00;2.70;;;;;;;;;;4905877;29;20075;-61
2023/04/21 09:32:20;;;;;;;9.10;3.17;;;;;;;;;;4903245;29;20056;-62
2023/04/21 09:34:48;;;;;;;7.75;3.08;;;;;;;;;;4902241;29;20045;-62
2023/04/21 09:37:23;;;;;;;7.85;3.10;;;;;;;;;;4903857;29;20055;-61
2023/04/21 09:39:51;;;;;;;3.97;2.05;;;;;;;;;;4902311;29;20107;-61
2023/04/21 09:42:33;;;;;;;7.50;2.38;;;;;;;;;;4903857;29;20044;-61
2023/04/21 09:45:08;;;;;;;5.00;2.47;;;;;;;;;;4904073;29;20054;-61
2023/04/21 09:47:58;;;;;;;6.28;2.63;;;;;;;;;;4897186;29;20497;-61
2023/04/21 09:50:27;;;;;;;7.45;2.83;;;;;;;;;;4901026;29;20127;-62
2023/04/21 09:53:17;;;;;;;7.93;2.30;;;;;;;;;;4900982;29;20433;-61
2023/04/21 09:55:48;;;;;;;6.18;2.95;;;;;;;;;;4899701;29;20058;-61
2023/04/21 09:58:17;;;;;;;5.90;2.35;;;;;;;;;;4897823;29;20051;-62
2023/04/21 10:00:45;;;;;;;8.55;3.05;;;;;;;;;;4899065;29;20047;-61
2023/04/21 10:03:15;;;;;;;5.20;2.78;;;;;;;;;;4902423;29;20116;-61
2023/04/21 10:05:43;;;;;;;6.25;2.10;;;;;;;;;;4894869;29;20058;-61
2023/04/21 10:08:12;;;;;;;9.60;2.75;;;;;;;;;;4896580;29;20076;-61
2023/04/21 10:10:42;;;;;;;6.88;2.60;;;;;;;;;;4898142;29;20052;-61
2023/04/21 10:13:15;;;;;;;6.13;2.60;;;;;;;;;;4898139;29;20474;-62
2023/04/21 10:15:43;;;;;;;6.07;2.80;;;;;;;;;;4900093;29;20048;-62
2023/04/21 10:18:13;;;;;;;6.07;2.65;;;;;;;;;;4902559;29;20100;-61
2023/04/21 10:20:54;;;;;;;5.07;2.50;;;;;;;;;;4900079;29;20044;-61
2023/04/21 10:23:29;;;;;;;9.02;2.92;;;;;;;;;;4899131;29;20055;-61
2023/04/21 10:25:59;;;;;;;;;;;;;;;;;;4900952;29;20056;-61
2023/04/21 10:28:40;;;;;;;6.35;3.10;;;;;;;;;;4897651;29;19931;-61
2023/04/21 10:31:19;;;;;;;7.43;2.45;;;;;;;;;;4901794;29;20050;-61
2023/04/21 10:34:06;;;;;;;6.45;2.70;;;;;;;;;;4897925;29;20406;-62
2023/04/21 10:36:35;;;;;;;5.68;2.63;;;;;;;;;;4896767;29;20064;-62
2023/04/21 10:39:04;;;;;;;8.43;2.65;;;;;;;;;;4897150;29;20051;-62
2023/04/21 10:41:33;;;;;;;6.00;2.88;;;;;;;;;;4900826;29;20597;-62
2023/04/21 10:44:12;;;;;;;7.90;2.55;;;;;;;;;;4897078;29;20150;-61
2023/04/21 10:46:41;;;;;;;6.40;3.25;;;;;;;;;;4898510;29;20053;-61
2023/04/21 10:49:10;;;;;;;4.93;2.30;;;;;;;;;;4899702;29;20056;-62
2023/04/21 10:51:57;;;;;;;7.55;2.17;;;;;;;;;;4898209;29;20139;-62
2023/04/21 10:54:25;;;;;;;9.20;3.08;;;;;;;;;;4900775;29;20143;-61
2023/04/21 10:56:54;;;;;;;5.72;2.75;;;;;;;;;;4899099;29;20482;-62
2023/04/21 10:59:24;;;;;;;7.78;3.75;;;;;;;;;;4901539;29;20494;-62
2023/04/21 11:01:53;;;;;;;5.07;2.17;;;;;;;;;;4897794;29;20052;-62
2023/04/21 11:04:22;;;;;;;5.35;2.22;;;;;;;;;;4901347;29;20045;-62
2023/04/21 11:07:06;;;;;;;7.13;3.50;;;;;;;;;;4898018;29;20083;-63
2023/04/21 11:09:34;;;;;;;5.38;2.95;;;;;;;;;;4897947;29;20144;-61
2023/04/21 11:12:06;;;;;;;7.63;2.47;;;;;;;;;;4895506;29;20053;-61
2023/04/21 11:14:36;;;;;;;7.78;2.30;;;;;;;;;;4898456;29;20049;-61
2023/04/21 11:17:05;;;;;;;8.48;2.38;;;;;;;;;;4899399;29;20044;-60
2023/04/21 11:19:34;;;;;;;6.97;2.35;;;;;;;;;;4895957;29;20052;-61
2023/04/21 11:22:02;;;;;;;4.82;2.22;;;;;;;;;;4898295;29;20044;-61
2023/04/21 11:24:31;;;;;;;7.18;2.97;;;;;;;;;;4895778;29;20075;-60
2023/04/21 11:27:00;;;;;;;6.82;2.97;;;;;;;;;;4900266;29;20494;-61
2023/04/21 11:29:29;;;;;;;6.97;2.75;;;;;;;;;;4903275;29;20429;-61
2023/04/21 11:31:59;;;;;;;6.95;3.22;;;;;;;;;;4906550;29;20136;-62
2023/04/21 11:34:27;;;;;;;4.95;2.30;;;;;;;;;;4903117;29;20150;-61
2023/04/21 11:36:56;;;;;;;6.65;2.53;;;;;;;;;;4898693;29;20413;-61
2023/04/21 11:39:24;;;;;;;4.22;2.08;;;;;;;;;;4899524;29;20139;-61
2023/04/21 11:41:53;;;;;;;5.00;2.65;;;;;;;;;;4899781;29;20473;-61
2023/04/21 11:44:35;;;;;;;4.97;2.60;;;;;;;;;;4903077;29;20052;-61
2023/04/21 11:47:14;;;;;;;7.20;2.28;;;;;;;;;;4900442;29;20051;-60
2023/04/21 11:49:46;;;;;;;8.18;2.22;;;;;;;;;;4901720;29;20116;-61
2023/04/21 11:52:25;;;;;;;7.93;2.80;;;;;;;;;;4900886;29;20057;-61
2023/04/21 11:54:57;;;;;;;5.40;2.58;;;;;;;;;;4900316;29;20054;-61
2023/04/21 11:57:26;;;;;;;6.22;3.20;;;;;;;;;;4902083;29;20135;-61
2023/04/21 11:59:55;;;;;;;5.30;2.97;;;;;;;;;;4900638;29;20071;-61
2023/04/21 12:02:26;;;;;;;5.78;2.83;;;;;;;;;;4912910;29;20044;-61
2023/04/21 12:04:58;;;;;;;4.50;2.50;;;;;;;;;;4909855;29;20058;-62
2023/04/21 12:07:27;;;;;;;7.32;3.55;;;;;;;;;;4906723;29;20766;-61
2023/04/21 12:09:55;;;;;;;7.80;3.38;;;;;;;;;;4905504;29;20138;-62
2023/04/21 12:12:24;;;;;;;5.18;2.55;;;;;;;;;;4904772;29;20051;-61
2023/04/21 12:14:52;;;;;;;5.47;2.55;;;;;;;;;;4906715;29;20058;-62
2023/04/21 12:17:21;;;;;;;4.25;1.70;;;;;;;;;;4905104;29;20485;-62
2023/04/21 12:19:51;;;;;;;3.05;1.70;;;;;;;;;;4905580;29;20103;-62
2023/04/21 12:22:21;;;;;;;3.20;1.65;;;;;;;;;;4906971;29;20052;-62
2023/04/21 12:24:50;;;;;;;5.30;1.58;;;;;;;;;;4906539;29;20091;-61
2023/04/21 12:27:19;;;;;;;7.13;2.22;;;;;;;;;;4901138;29;20062;-62
2023/04/21 12:29:47;;;;;;;3.30;1.70;;;;;;;;;;4905593;29;20142;-62
2023/04/21 12:32:15;;;;;;;2.47;1.40;;;;;;;;;;4905319;29;20077;-62
2023/04/21 12:34:44;;;;;;;1.38;0.95;;;;;;;;;;4900921;29;20140;-62
2023/04/21 12:37:14;;;;;;;1.45;0.80;;;;;;;;;;4906393;29;20052;-61
2023/04/21 12:39:43;;;;;;;0.77;0.73;;;;;;;;;;4904725;29;20056;-62
2023/04/21 12:42:11;;;;;;;1.88;0.85;;;;;;;;;;4904576;29;20541;-63
2023/04/21 12:44:39;;;;;;;1.05;0.60;;;;;;;;;;4906264;29;20130;-62
2023/04/21 12:47:08;;;;;;;1.10;0.50;;;;;;;;;;4902865;29;20044;-62
2023/04/21 12:49:36;;;;;;;0.77;0.77;;;;;;;;;;4897340;29;20063;-62
2023/04/21 12:52:05;;;;;;;0.80;0.43;;;;;;;;;;4907398;29;20135;-62
2023/04/21 12:54:35;;;;;;;0.77;0.60;;;;;;;;;;4899027;29;20127;-62
2023/04/21 12:57:03;;;;;;;1.38;0.60;;;;;;;;;;4901865;29;20084;-63
2023/04/21 12:59:31;;;;;;;1.38;0.88;;;;;;;;;;4906029;29;20052;-62
2023/04/21 13:02:00;;;;;;;2.17;0.57;;;;;;;;;;4901477;29;20052;-62
2023/04/21 13:04:29;;;;;;;0.90;0.60;;;;;;;;;;4901083;29;20051;-62
2023/04/21 13:06:58;;;;;;;1.38;0.93;;;;;;;;;;4905383;29;20062;-62
2023/04/21 13:09:26;;;;;;;1.80;0.90;;;;;;;;;;4905302;29;20143;-62
2023/04/21 13:11:56;;;;;;;1.38;0.77;;;;;;;;;;4903014;29;20056;-62
2023/04/21 13:14:24;;;;;;;1.65;0.80;;;;;;;;;;4905175;29;20052;-61
2023/04/21 13:16:53;;;;;;;1.45;0.95;;;;;;;;;;4903420;29;20059;-61
2023/04/21 13:19:21;;;;;;;0.73;0.63;;;;;;;;;;4906698;29;20334;-61
2023/04/21 13:21:50;;;;;;;1.10;0.60;;;;;;;;;;4902854;29;20055;-62
2023/04/21 13:24:21;;;;;;;4.85;0.85;;;;;;;;;;4900980;29;20087;-61
2023/04/21 13:26:49;;;;;;;1.65;1.00;;;;;;;;;;4904636;29;20135;-62
2023/04/21 13:29:19;;;;;;;1.20;0.90;;;;;;;;;;4902918;29;20490;-62
2023/04/21 13:31:47;;;;;;;3.13;1.40;;;;;;;;;;4903632;29;20055;-62
2023/04/21 13:34:16;;;;;;;2.25;1.33;;;;;;;;;;4903062;29;20248;-62
2023/04/21 13:36:44;;;;;;;3.20;1.13;;;;;;;;;;4903584;29;20094;-63
2023/04/21 13:39:13;;;;;;;4.45;1.17;;;;;;;;;;4905071;29;20108;-63
2023/04/21 13:41:41;;;;;;;1.20;0.80;;;;;;;;;;4904590;29;20044;-62
2023/04/21 13:44:09;;;;;;;1.45;0.73;;;;;;;;;;4899712;29;20757;-62
2023/04/21 13:46:39;;;;;;;1.50;1.35;;;;;;;;;;4903227;29;20052;-62
2023/04/21 13:49:08;;;;;;;1.92;1.10;;;;;;;;;;4897627;29;20048;-62
2023/04/21 13:51:36;;;;;;;1.77;0.85;;;;;;;;;;4905430;29;20083;-62
2023/04/21 13:54:05;;;;;;;1.38;0.70;;;;;;;;;;4907045;29;20589;-62
2023/04/21 13:56:33;;;;;;;1.17;0.60;;;;;;;;;;4900512;29;20147;-62
2023/04/21 13:59:01;;;;;;;1.48;0.73;;;;;;;;;;4899678;29;20391;-62
2023/04/21 14:01:30;;;;;;;1.23;1.10;;;;;;;;;;4905190;29;20582;-62
2023/04/21 14:03:59;;;;;;;1.35;0.63;;;;;;;;;;4900998;29;20056;-62
2023/04/21 14:06:28;;;;;;;0.82;0.45;;;;;;;;;;4903993;29;20056;-62
2023/04/21 14:08:57;;;;;;;2.03;0.95;;;;;;;;;;4903067;29;20058;-62
2023/04/21 14:11:25;;;;;;;1.70;0.90;;;;;;;;;;4902814;29;20567;-62
2023/04/21 14:13:53;;;;;;;2.22;1.15;;;;;;;;;;4901966;29;20052;-62
2023/04/21 14:16:36;;;;;;;1.02;0.80;;;;;;;;;;4903304;29;20047;-62
2023/04/21 14:19:07;;;;;;;0.65;0.50;;;;;;;;;;4903266;29;20053;-62
2023/04/21 14:21:35;;;;;;;0.90;0.60;;;;;;;;;;4902050;29;20104;-63
2023/04/21 14:24:03;;;;;;;0.50;0.50;;;;;;;;;;4901124;29;20072;-62
2023/04/21 14:26:32;;;;;;;0.90;0.50;;;;;;;;;;4903570;29;20138;-62
2023/04/21 14:29:00;;;;;;;1.35;0.85;;;;;;;;;;4903374;29;20442;-62
2023/04/21 14:31:28;;;;;;;1.30;0.50;;;;;;;;;;4904414;29;20388;-62
2023/04/21 14:33:57;;;;;;;1.65;0.60;;;;;;;;;;4900125;29;20056;-62
2023/04/21 14:36:27;;;;;;;0.90;0.65;;;;;;;;;;4900782;29;20067;-62
2023/04/21 14:38:55;;;;;;;1.48;0.60;;;;;;;;;;4901536;29;20421;-63
2023/04/21 14:41:24;;;;;;;1.00;0.80;;;;;;;;;;4906001;29;20048;-63
2023/04/21 14:43:55;;;;;;;2.33;0.70;;;;;;;;;;4903746;29;20079;-63
2023/04/21 14:46:23;;;;;;;1.77;0.80;;;;;;;;;;4901173;29;20048;-63
2023/04/21 14:48:52;;;;;;;0.95;0.50;;;;;;;;;;4898045;29;20163;-62
2023/04/21 14:51:20;;;;;;;0.93;0.70;;;;;;;;;;4904069;29;20131;-62
2023/04/21 14:53:50;;;;;;;4.15;0.82;;;;;;;;;;4903607;29;20044;-63
2023/04/21 14:56:19;;;;;;;1.05;0.70;;;;;;;;;;4901942;29;20060;-63